Time;durP1;ratioP1;P1;durP2;ratioP2;P2;SDS_P1;SDS_P2;PMS_P1;PMS_P2;Temp;Humidity;BMP_temperature;BMP_pressure;BME280_temperature;BME280_humidity;BME280_pressure;Samples;Min_cycle;Max_cycle;Signal;HPM_P1;HPM_P2
2021/08/31 00:01:48;;;;;;;11.38;8.77;;;;;;;17.85;63.35;100471.31;6043422;23;20042;-81
2021/08/31 00:04:19;;;;;;;10.70;8.70;;;;;;;17.82;63.99;100474.22;6043345;23;20354;-82
2021/08/31 00:06:46;;;;;;;11.85;8.02;;;;;;;17.82;63.20;100469.75;6043734;23;20102;-81
2021/08/31 00:09:14;;;;;;;11.07;8.90;;;;;;;17.80;63.59;100465.50;6043553;23;20019;-81
2021/08/31 00:11:44;;;;;;;9.68;8.45;;;;;;;17.79;63.57;100467.31;6043719;23;20414;-81
2021/08/31 00:14:11;;;;;;;12.20;9.02;;;;;;;17.77;63.39;100465.72;6043466;23;20023;-81
2021/08/31 00:16:39;;;;;;;10.98;8.93;;;;;;;17.76;63.24;100472.84;6043619;23;20342;-81
2021/08/31 00:19:06;;;;;;;13.02;8.73;;;;;;;17.74;63.45;100468.63;6043297;23;20025;-81
2021/08/31 00:21:33;;;;;;;13.55;8.95;;;;;;;17.71;63.74;100469.69;6043060;23;20027;-81
2021/08/31 00:24:04;;;;;;;11.70;8.90;;;;;;;17.68;64.21;100469.97;6043075;23;20031;-81
2021/08/31 00:26:31;;;;;;;11.32;9.30;;;;;;;17.69;63.64;100474.31;6043127;23;20023;-81
2021/08/31 00:28:57;;;;;;;11.30;9.15;;;;;;;17.67;63.92;100473.56;6043161;23;20022;-81
2021/08/31 00:31:24;;;;;;;11.07;9.10;;;;;;;17.66;63.91;100470.06;6043218;23;20031;-81
2021/08/31 00:33:51;;;;;;;11.73;8.63;;;;;;;17.67;63.73;100476.22;6043455;23;20026;-81
2021/08/31 00:36:18;;;;;;;11.25;9.82;;;;;;;17.66;64.00;100464.75;6044713;23;20029;-81
2021/08/31 00:38:48;;;;;;;15.45;10.02;;;;;;;17.65;64.17;100472.84;6044990;23;20023;-81
2021/08/31 00:41:14;;;;;;;11.65;9.13;;;;;;;17.66;63.80;100469.22;6044739;23;20062;-81
2021/08/31 00:43:46;;;;;;;11.95;9.85;;;;;;;17.64;64.67;100473.81;6044769;23;20029;-81
2021/08/31 00:46:27;;;;;;;13.65;9.07;;;;;;;17.61;64.53;100476.69;6045402;23;20349;-81
2021/08/31 00:48:54;;;;;;;9.93;8.88;;;;;;;17.63;63.88;100478.28;6045119;23;20443;-81
2021/08/31 00:51:22;;;;;;;13.75;9.93;;;;;;;17.60;64.12;100486.47;6044819;23;20023;-81
2021/08/31 00:53:53;;;;;;;15.85;9.07;;;;;;;17.59;64.24;100479.47;6044700;23;20029;-81
2021/08/31 00:56:20;;;;;;;10.98;9.13;;;;;;;17.59;63.84;100474.16;6045241;23;20029;-81
2021/08/31 00:58:54;;;;;;;12.00;9.80;;;;;;;17.56;64.77;100479.69;6044713;23;20019;-81
2021/08/31 01:01:21;;;;;;;14.85;9.73;;;;;;;17.58;64.24;100477.78;6045052;23;20077;-81
2021/08/31 01:03:48;;;;;;;12.57;9.93;;;;;;;17.58;64.15;100478.63;6044672;23;20023;-81
2021/08/31 01:06:18;;;;;;;13.00;10.55;;;;;;;17.56;64.93;100480.56;6044616;23;20023;-81
2021/08/31 01:08:45;;;;;;;13.02;9.60;;;;;;;17.57;64.33;100479.59;6044623;23;20135;-81
2021/08/31 01:11:12;;;;;;;14.85;9.73;;;;;;;17.58;64.39;100478.63;6045162;23;20490;-81
2021/08/31 01:13:41;;;;;;;14.45;9.68;;;;;;;17.60;64.63;100480.34;6044974;23;20447;-81
2021/08/31 01:16:08;;;;;;;18.52;9.57;;;;;;;17.58;64.52;100475.94;6044338;23;20019;-81
2021/08/31 01:18:34;;;;;;;20.05;9.63;;;;;;;17.59;64.63;100476.81;6044769;23;20372;-81
2021/08/31 01:21:15;;;;;;;11.10;9.07;;;;;;;17.55;65.27;100478.00;6044921;23;20472;-81
2021/08/31 01:23:46;;;;;;;12.07;9.07;;;;;;;17.58;64.52;100475.94;6044283;23;20022;-81
2021/08/31 01:26:13;;;;;;;18.10;8.38;;;;;;;17.58;64.40;100481.28;6044496;23;20026;-81
2021/08/31 01:28:42;;;;;;;14.77;9.43;;;;;;;17.56;64.39;100483.22;6044466;23;20105;-81
2021/08/31 01:31:09;;;;;;;17.02;9.27;;;;;;;17.56;64.58;100480.56;6044861;23;20327;-81
2021/08/31 01:33:35;;;;;;;11.65;8.55;;;;;;;17.55;64.44;100484.19;6069908;23;20026;-81
2021/08/31 01:36:25;;;;;;;11.13;9.00;;;;;;;17.50;65.38;100485.50;6044619;23;20456;-81
2021/08/31 01:38:55;;;;;;;10.70;8.43;;;;;;;17.53;64.70;100488.75;6044665;23;20019;-81
2021/08/31 01:41:23;;;;;;;12.07;8.90;;;;;;;17.52;64.54;100489.72;6044368;23;20029;-81
2021/08/31 01:43:51;;;;;;;13.73;8.38;;;;;;;17.52;64.80;100487.06;6044253;23;20029;-81
2021/08/31 01:46:18;;;;;;;12.88;10.13;;;;;;;17.51;64.80;100496.03;6044174;23;20029;-81
2021/08/31 01:48:45;;;;;;;13.32;9.45;;;;;;;17.50;64.71;100491.69;6044241;23;20027;-81
2021/08/31 01:51:21;;;;;;;13.18;9.80;;;;;;;17.46;65.46;100498.19;6044802;23;20081;-81
2021/08/31 01:53:47;;;;;;;13.13;10.13;;;;;;;17.49;65.09;100500.59;6044048;23;20038;-81
2021/08/31 01:56:14;;;;;;;13.93;10.75;;;;;;;17.48;65.06;100504.22;6044222;23;20029;-81
2021/08/31 01:58:43;;;;;;;14.73;11.07;;;;;;;17.47;65.79;100493.69;6044375;23;20023;-81
2021/08/31 02:01:10;;;;;;;16.70;10.93;;;;;;;17.49;65.71;100494.44;6044305;23;20022;-81
2021/08/31 02:03:38;;;;;;;17.45;11.20;;;;;;;17.50;65.72;100501.47;6044352;23;20034;-81
2021/08/31 02:06:08;;;;;;;14.80;11.68;;;;;;;17.50;66.51;100498.78;6044066;23;20029;-81
2021/08/31 02:08:35;;;;;;;13.57;10.68;;;;;;;17.53;65.90;100487.94;6043442;23;20037;-81
2021/08/31 02:11:15;;;;;;;13.98;10.45;;;;;;;17.50;66.72;100483.69;6043697;23;20346;-81
2021/08/31 02:13:42;;;;;;;18.15;11.35;;;;;;;17.56;66.17;100485.88;6044008;23;20023;-81
2021/08/31 02:16:09;;;;;;;13.70;11.05;;;;;;;17.58;66.28;100483.09;6044552;23;20073;-81
2021/08/31 02:18:39;;;;;;;19.48;11.07;;;;;;;17.59;66.39;100479.47;6044231;23;20019;-81
2021/08/31 02:21:09;;;;;;;16.08;12.15;;;;;;;17.63;66.36;100485.41;6043951;23;20057;-81
2021/08/31 02:23:37;;;;;;;14.98;9.95;;;;;;;17.65;66.16;100484.31;6044093;23;20076;-81
2021/08/31 02:26:04;;;;;;;14.70;10.75;;;;;;;17.68;66.31;100477.94;6043781;23;20030;-81
2021/08/31 02:28:31;;;;;;;13.98;10.73;;;;;;;17.72;66.11;100476.75;6044003;23;20023;-81
2021/08/31 02:31:03;;;;;;;17.85;10.88;;;;;;;17.73;66.52;100480.25;6044113;23;20453;-81
2021/08/31 02:33:30;;;;;;;12.23;10.02;;;;;;;17.77;66.01;100474.56;6069488;23;20434;-81
2021/08/31 02:36:23;;;;;;;14.82;11.02;;;;;;;17.73;66.50;100481.09;6043745;23;20058;-81
2021/08/31 02:38:50;;;;;;;;;;;;;;;17.78;65.61;100483.41;6044744;23;20342;-81
2021/08/31 02:41:16;;;;;;;12.13;8.48;;;;;;;17.80;65.06;100476.97;6043693;23;19921;-81
2021/08/31 02:43:46;;;;;;;14.73;9.95;;;;;;;17.78;66.08;100480.72;6044120;23;20030;-81
2021/08/31 02:46:13;;;;;;;12.85;11.25;;;;;;;17.78;65.92;100480.72;6044088;23;20098;-81
2021/08/31 02:48:40;;;;;;;13.93;10.75;;;;;;;17.76;66.18;100480.84;6043842;23;20081;-81
2021/08/31 02:51:10;;;;;;;17.10;11.38;;;;;;;17.75;66.52;100473.84;6043769;23;20027;-81
2021/08/31 02:53:38;;;;;;;28.10;11.52;;;;;;;17.79;66.44;100475.28;6019997;23;20078;-81
2021/08/31 02:56:14;;;;;;;20.55;11.55;;;;;;;17.79;67.18;100483.28;6044165;23;20030;-81
2021/08/31 02:58:40;;;;;;;25.08;12.75;;;;;;;17.86;66.47;100480.16;6043967;23;20033;-81
2021/08/31 03:01:28;;;;;;;44.45;12.15;;;;;;;17.86;66.18;100486.31;6044018;23;20457;-81
2021/08/31 03:03:58;;;;;;;15.82;11.15;;;;;;;17.89;66.12;100485.25;6069047;23;20105;-81
2021/08/31 03:06:26;;;;;;;18.00;11.30;;;;;;;17.89;66.52;100487.91;6068741;23;20109;-81
2021/08/31 03:09:13;;;;;;;25.63;11.32;;;;;;;17.86;67.04;100486.31;6043771;23;20029;-81
2021/08/31 03:11:40;;;;;;;45.40;11.20;;;;;;;17.92;66.18;100491.19;6068658;23;20031;-81
2021/08/31 03:14:28;;;;;;;17.52;11.48;;;;;;;17.89;67.18;100493.22;6043444;23;20109;-81
2021/08/31 03:16:56;;;;;;;27.52;10.85;;;;;;;17.94;66.57;100489.25;6043594;23;20058;-81
2021/08/31 03:19:24;;;;;;;60.55;12.10;;;;;;;17.94;66.60;100494.59;6043523;23;20023;-81
2021/08/31 03:21:55;;;;;;;41.80;13.27;;;;;;;17.95;67.10;100495.44;6043539;23;20097;-81
2021/08/31 03:24:23;;;;;;;52.85;13.02;;;;;;;17.96;66.36;100495.34;6043741;23;20454;-81
2021/08/31 03:26:50;;;;;;;31.58;12.80;;;;;;;17.98;66.39;100500.50;6043963;23;20023;-81
2021/08/31 03:29:33;;;;;;;17.05;10.82;;;;;;;17.94;67.42;100499.09;6068455;23;20023;-81
2021/08/31 03:32:00;;;;;;;18.73;11.63;;;;;;;18.01;66.38;100496.78;6043663;23;20022;-81
2021/08/31 03:34:27;;;;;;;33.78;10.88;;;;;;;18.02;66.34;100493.97;6043711;23;20027;-81
2021/08/31 03:36:53;;;;;;;67.85;11.57;;;;;;;18.02;66.55;100490.50;6043699;23;20448;-81
2021/08/31 03:39:20;;;;;;;45.80;10.18;;;;;;;18.02;66.22;100496.66;6043473;23;20023;-81
2021/08/31 03:41:47;;;;;;;44.35;10.85;;;;;;;18.02;66.57;100496.66;6043910;23;20349;-81
2021/08/31 03:44:16;;;;;;;25.48;10.48;;;;;;;18.01;66.96;100496.78;6043691;23;20449;-81
2021/08/31 03:46:43;;;;;;;42.63;10.43;;;;;;;18.00;66.46;100503.94;6043293;23;20022;-81
2021/08/31 03:49:10;;;;;;;39.22;10.30;;;;;;;17.99;66.35;100502.22;6043771;23;20023;-81
2021/08/31 03:51:55;;;;;;;21.33;9.95;;;;;;;17.94;67.46;100499.09;6043806;23;20319;-81
2021/08/31 03:54:21;;;;;;;26.52;9.23;;;;;;;17.98;66.38;100505.84;6043179;23;20023;-81
2021/08/31 03:56:48;;;;;;;46.40;10.65;;;;;;;17.97;66.72;100507.69;6043396;23;20037;-81
2021/08/31 03:59:38;;;;;;;37.35;11.10;;;;;;;17.93;67.40;100505.34;6043355;23;20149;-81
2021/08/31 04:02:05;;;;;;;15.82;10.75;;;;;;;17.97;66.71;100512.16;6043310;23;20076;-81
2021/08/31 04:04:31;;;;;;;42.15;10.95;;;;;;;17.98;66.73;100512.03;6043580;23;20458;-81
2021/08/31 04:07:01;;;;;;;37.80;9.98;;;;;;;17.96;67.19;100513.97;6043358;23;20110;-81
2021/08/31 04:09:28;;;;;;;20.42;9.93;;;;;;;17.98;67.07;100511.16;6043370;23;20023;-81
2021/08/31 04:11:55;;;;;;;12.02;8.25;;;;;;;17.97;66.91;100513.00;6045680;23;20109;-81
2021/08/31 04:14:52;;;;;;;18.48;9.07;;;;;;;17.94;67.54;100517.72;6045037;23;20029;-81
2021/08/31 04:17:19;;;;;;;14.25;8.82;;;;;;;17.99;66.93;100518.22;6045459;23;20027;-81
2021/08/31 04:19:46;;;;;;;11.25;8.98;;;;;;;17.99;66.82;100515.56;6045458;23;20049;-81
2021/08/31 04:22:13;;;;;;;21.65;9.75;;;;;;;17.99;67.03;100526.22;6045812;23;20498;-81
2021/08/31 04:24:54;;;;;;;14.57;9.18;;;;;;;17.95;67.75;100519.41;6045134;23;20462;-81
2021/08/31 04:27:21;;;;;;;17.02;9.70;;;;;;;18.00;66.82;100516.38;6045438;23;20446;-81
2021/08/31 04:29:48;;;;;;;12.70;9.23;;;;;;;18.00;67.04;100519.03;6044961;23;20022;-81
2021/08/31 04:32:18;;;;;;;28.65;9.77;;;;;;;18.01;67.06;100520.78;6046038;23;20094;-81
2021/08/31 04:34:47;;;;;;;39.13;9.75;;;;;;;18.01;67.24;100515.44;6044923;23;20035;-81
2021/08/31 04:37:13;;;;;;;26.95;10.27;;;;;;;18.01;67.09;100515.44;6045418;23;20409;-81
2021/08/31 04:39:40;;;;;;;20.92;10.77;;;;;;;18.01;67.45;100510.13;6045350;23;20454;-82
2021/08/31 04:42:07;;;;;;;22.25;10.40;;;;;;;18.02;67.18;100519.78;6044791;23;20105;-82
2021/08/31 04:44:45;;;;;;;22.75;10.52;;;;;;;17.99;68.23;100518.22;6044919;23;20026;-81
2021/08/31 04:47:11;;;;;;;27.45;10.50;;;;;;;18.04;67.38;100515.19;6070807;23;20045;-82
2021/08/31 04:49:53;;;;;;;15.35;10.52;;;;;;;18.02;68.27;100519.78;6045177;23;20030;-82
2021/08/31 04:52:21;;;;;;;14.57;10.32;;;;;;;18.07;67.56;100515.81;6044902;23;20105;-82
2021/08/31 04:54:47;;;;;;;11.35;9.55;;;;;;;18.10;67.07;100514.75;6044768;23;20026;-81
2021/08/31 04:57:25;;;;;;;17.25;11.88;;;;;;;18.07;67.77;100515.81;6045633;23;20031;-81
2021/08/31 04:59:51;;;;;;;;;;;;;;;18.10;67.21;100512.09;6045120;23;20030;-82
2021/08/31 05:02:18;;;;;;;15.30;10.57;;;;;;;18.15;66.75;100514.38;6044910;23;19918;-79
2021/08/31 05:04:45;;;;;;;16.08;11.85;;;;;;;18.15;66.92;100514.38;6044968;23;20114;-79
2021/08/31 05:07:21;;;;;;;15.38;11.23;;;;;;;18.09;67.93;100521.91;6070587;23;20346;-79
2021/08/31 05:09:48;;;;;;;16.60;11.95;;;;;;;18.13;67.26;100514.50;6070150;23;20343;-79
2021/08/31 05:12:14;;;;;;;14.77;12.07;;;;;;;18.13;67.48;100521.66;6044797;23;20031;-79
2021/08/31 05:14:41;;;;;;;15.20;12.23;;;;;;;18.14;67.57;100516.22;6044446;23;20022;-79
2021/08/31 05:17:08;;;;;;;18.10;12.88;;;;;;;18.14;67.90;100521.56;6044982;23;20029;-79
2021/08/31 05:19:35;;;;;;;15.77;11.60;;;;;;;18.15;67.79;100525.03;6045567;23;20043;-78
2021/08/31 05:22:03;;;;;;;17.55;12.77;;;;;;;18.18;68.02;100522.16;6043807;23;20029;-78
2021/08/31 05:24:38;;;;;;;17.27;13.27;;;;;;;18.17;68.33;100525.78;6068131;23;20037;-79
2021/08/31 05:27:15;;;;;;;17.30;12.85;;;;;;;18.19;68.62;100522.03;6044601;23;20033;-79
2021/08/31 05:29:42;;;;;;;18.27;12.63;;;;;;;18.24;67.71;100521.66;6070195;23;20031;-78
2021/08/31 05:32:11;;;;;;;15.45;12.43;;;;;;;18.25;67.99;100523.38;6070040;23;20450;-79
2021/08/31 05:34:38;;;;;;;16.55;13.05;;;;;;;18.28;68.02;100528.47;6043078;23;20027;-78
2021/08/31 05:37:05;;;;;;;14.48;11.65;;;;;;;18.31;68.03;100535.38;6044291;23;20102;-79
2021/08/31 05:39:34;;;;;;;19.02;13.80;;;;;;;18.34;67.63;100532.47;6044617;23;20029;-79
2021/08/31 05:42:04;;;;;;;19.48;13.55;;;;;;;18.34;67.63;100529.81;6044344;23;20094;-79
2021/08/31 05:44:34;;;;;;;19.80;13.63;;;;;;;18.36;67.77;100534.03;6044477;23;20095;-79
2021/08/31 05:47:07;;;;;;;19.75;13.60;;;;;;;18.39;67.68;100537.47;6045325;23;20049;-79
2021/08/31 05:49:34;;;;;;;19.90;14.77;;;;;;;18.40;68.07;100548.00;6044783;23;20346;-78
2021/08/31 05:52:02;;;;;;;19.63;14.20;;;;;;;18.41;67.71;100538.16;6069792;23;20029;-79
2021/08/31 05:54:29;;;;;;;18.88;13.07;;;;;;;18.42;67.66;100537.19;6043802;23;20038;-79
2021/08/31 05:56:57;;;;;;;20.38;14.60;;;;;;;18.44;67.94;100543.28;6044412;23;20329;-79
2021/08/31 05:59:24;;;;;;;18.48;13.52;;;;;;;18.46;68.07;100549.31;6044816;23;20029;-79
2021/08/31 06:01:58;;;;;;;20.25;14.85;;;;;;;18.45;68.13;100553.81;6043552;23;20030;-78
2021/08/31 06:04:38;;;;;;;17.73;13.23;;;;;;;18.48;68.32;100558.06;6046329;23;20058;-79
2021/08/31 06:07:07;;;;;;;20.35;14.07;;;;;;;18.51;67.86;100565.84;6044236;23;20051;-78
2021/08/31 06:09:36;;;;;;;23.73;14.10;;;;;;;18.53;67.84;100561.22;6044029;23;20058;-79
2021/08/31 06:12:09;;;;;;;18.10;13.65;;;;;;;18.52;68.00;100567.53;6044195;23;20023;-79
2021/08/31 06:14:36;;;;;;;18.05;13.68;;;;;;;18.56;67.89;100562.78;6044355;23;20414;-79
2021/08/31 06:17:04;;;;;;;20.23;13.07;;;;;;;18.57;67.72;100561.81;6044684;23;20515;-79
2021/08/31 06:19:38;;;;;;;19.33;13.85;;;;;;;18.56;68.43;100566.31;6044045;23;20022;-79
2021/08/31 06:22:04;;;;;;;20.27;14.23;;;;;;;18.61;68.04;100566.78;6044344;23;20018;-78
2021/08/31 06:24:31;;;;;;;18.08;13.98;;;;;;;18.63;67.62;100572.00;6044226;23;20019;-79
2021/08/31 06:26:58;;;;;;;23.85;15.15;;;;;;;18.64;67.74;100571.03;6044004;23;20470;-82
2021/08/31 06:29:25;;;;;;;19.42;13.93;;;;;;;18.65;67.74;100567.41;6044341;23;20113;-82
2021/08/31 06:31:52;;;;;;;21.38;14.63;;;;;;;18.67;67.38;100569.94;6043788;23;20098;-82
2021/08/31 06:34:18;;;;;;;22.00;13.80;;;;;;;18.69;67.58;100579.53;6043654;23;20029;-82
2021/08/31 06:36:45;;;;;;;19.38;14.55;;;;;;;18.71;67.62;100576.75;6044296;23;20046;-82
2021/08/31 06:39:41;;;;;;;18.63;14.30;;;;;;;18.69;68.06;100578.69;6043972;23;20098;-82
2021/08/31 06:42:07;;;;;;;19.38;13.45;;;;;;;18.76;67.51;100585.22;6069797;23;20315;-82
2021/08/31 06:44:34;;;;;;;19.75;13.25;;;;;;;18.80;67.49;100586.69;6043764;23;20022;-82
2021/08/31 06:47:05;;;;;;;21.58;15.00;;;;;;;18.83;68.22;100589.13;6043737;23;20025;-82
2021/08/31 06:49:34;;;;;;;20.55;15.40;;;;;;;18.88;67.69;100586.91;6043863;23;20029;-82
2021/08/31 06:52:27;;;;;;;22.05;15.85;;;;;;;18.91;67.49;100587.66;6043216;23;20023;-82
2021/08/31 06:54:54;;;;;;;21.38;15.43;;;;;;;18.99;66.69;100585.25;6068816;23;20023;-82
2021/08/31 06:57:36;;;;;;;20.10;14.52;;;;;;;18.94;66.89;100588.25;6043620;23;20018;-82
2021/08/31 07:00:07;;;;;;;22.50;15.50;;;;;;;18.98;66.10;100589.72;6043839;23;20022;-82
2021/08/31 07:02:46;;;;;;;20.15;15.18;;;;;;;18.93;66.31;100596.38;6044512;23;20347;-82
2021/08/31 07:05:13;;;;;;;22.10;14.32;;;;;;;18.93;66.47;100588.38;6043678;23;20022;-82
2021/08/31 07:07:57;;;;;;;21.20;13.73;;;;;;;18.87;67.24;100593.25;6068675;23;20022;-82
2021/08/31 07:10:24;;;;;;;19.95;13.40;;;;;;;18.93;67.21;100607.06;6043597;23;20066;-82
2021/08/31 07:13:02;;;;;;;23.25;14.20;;;;;;;18.93;67.48;100607.06;6044072;23;20058;-82
2021/08/31 07:15:29;;;;;;;17.52;12.63;;;;;;;19.00;66.99;100613.63;6043878;23;20349;-82
2021/08/31 07:18:15;;;;;;;16.80;12.98;;;;;;;18.99;66.68;100611.91;6043731;23;20023;-82
2021/08/31 07:20:43;;;;;;;19.17;13.57;;;;;;;19.04;66.11;100612.41;6044016;23;20026;-82
2021/08/31 07:23:14;;;;;;;17.02;12.68;;;;;;;19.02;66.43;100609.00;6043445;23;20018;-82
2021/08/31 07:26:26;;;;;;;18.77;12.30;;;;;;;18.99;66.56;100614.59;6043354;23;20018;-82
2021/08/31 07:28:55;;;;;;;25.52;12.38;;;;;;;19.06;66.22;100615.81;6044067;23;20025;-82
2021/08/31 07:31:44;;;;;;;14.00;10.73;;;;;;;19.03;66.80;100621.38;6043556;23;20027;-82
2021/08/31 07:34:15;;;;;;;15.18;11.43;;;;;;;19.12;66.53;100612.66;6044748;23;20046;-82
2021/08/31 07:36:47;;;;;;;16.65;11.50;;;;;;;19.14;66.31;100624.06;6043904;23;20331;-82
2021/08/31 07:39:14;;;;;;;14.25;11.35;;;;;;;19.21;66.33;100618.25;6043839;23;20023;-82
2021/08/31 07:41:47;;;;;;;15.45;11.75;;;;;;;19.21;65.95;100628.94;6043788;23;20450;-82
2021/08/31 07:44:14;;;;;;;;;;;;;;;19.26;65.89;100626.72;6043689;23;20023;-82
2021/08/31 07:46:47;;;;;;;19.65;11.20;;;;;;;19.32;66.18;100633.41;6043751;23;19921;-82
2021/08/31 07:49:14;;;;;;;13.30;11.07;;;;;;;19.34;66.55;100634.97;6043747;23;20045;-82
2021/08/31 07:51:44;;;;;;;17.92;12.43;;;;;;;19.37;66.63;100634.72;6043601;23;20027;-82
2021/08/31 07:54:12;;;;;;;16.60;11.70;;;;;;;19.46;66.27;100635.81;6043348;23;20029;-82
2021/08/31 07:56:39;;;;;;;14.23;11.02;;;;;;;19.56;66.19;100640.41;6043751;23;20354;-82
2021/08/31 08:02:19;;;;;;;14.65;11.13;;;;;;;19.74;65.63;100638.88;6068774;23;20541;-82
2021/08/31 08:05:38;;;;;;;13.55;10.85;;;;;;;19.75;65.54;100647.75;6068458;23;20027;-82
2021/08/31 08:08:05;;;;;;;14.10;9.30;;;;;;;19.83;64.76;100649.78;6043684;23;20405;-82
2021/08/31 08:10:31;;;;;;;11.32;8.63;;;;;;;19.83;64.44;100650.66;6068241;23;20109;-82
2021/08/31 08:12:58;;;;;;;16.95;9.57;;;;;;;19.82;64.28;100654.31;6043212;23;20022;-82
2021/08/31 08:15:25;;;;;;;12.32;9.73;;;;;;;19.82;64.22;100653.44;6043201;23;20023;-82
2021/08/31 08:17:52;;;;;;;12.35;8.18;;;;;;;19.79;64.17;100655.41;6043331;23;20110;-82
2021/08/31 08:20:28;;;;;;;12.93;9.10;;;;;;;19.74;63.85;100651.41;6043487;23;20026;-82
2021/08/31 08:22:55;;;;;;;13.38;9.02;;;;;;;19.76;64.31;100652.97;6043597;23;20349;-82
2021/08/31 08:25:23;;;;;;;13.30;8.68;;;;;;;19.75;64.75;100651.28;6043173;23;20034;-82
2021/08/31 08:27:50;;;;;;;11.98;8.75;;;;;;;19.80;64.84;100653.56;6068184;23;20105;-82
2021/08/31 08:30:17;;;;;;;11.60;8.27;;;;;;;19.85;65.07;100648.69;6043724;23;20904;-82
2021/08/31 08:32:44;;;;;;;9.77;7.75;;;;;;;19.91;65.07;100653.53;6043123;23;20102;-82
2021/08/31 08:35:12;;;;;;;14.15;8.40;;;;;;;20.00;64.42;100653.78;6043106;23;20023;-82
2021/08/31 08:37:39;;;;;;;9.95;7.50;;;;;;;20.07;63.96;100657.63;6043505;23;20502;-82
2021/08/31 08:40:40;;;;;;;8.68;7.13;;;;;;;20.10;64.10;100660.06;6043191;23;20114;-82
2021/08/31 08:43:07;;;;;;;10.60;7.70;;;;;;;20.25;64.18;100657.06;6043553;23;20029;-82
2021/08/31 08:45:34;;;;;;;9.55;7.07;;;;;;;20.32;64.34;100658.25;6068478;23;20338;-82
2021/08/31 08:48:01;;;;;;;9.93;6.97;;;;;;;20.43;64.44;100658.22;6043150;23;20023;-82
2021/08/31 08:50:57;;;;;;;7.45;6.45;;;;;;;20.52;63.72;100656.56;6042875;23;20058;-82
2021/08/31 08:53:26;;;;;;;9.52;6.80;;;;;;;20.71;64.24;100657.69;6043190;23;20029;-82
2021/08/31 08:55:53;;;;;;;8.68;6.43;;;;;;;20.85;63.63;100659.16;6043416;23;20098;-82
2021/08/31 08:58:19;;;;;;;9.32;6.65;;;;;;;20.98;63.26;100656.31;6044870;23;20031;-83
2021/08/31 09:01:01;;;;;;;8.65;6.20;;;;;;;21.04;62.17;100655.75;6044686;23;20023;-82
2021/08/31 09:03:31;;;;;;;9.85;5.80;;;;;;;21.15;61.94;100659.34;6045029;23;20083;-82
2021/08/31 09:06:33;;;;;;;9.07;6.30;;;;;;;21.16;61.54;100663.72;6045104;23;20458;-82
2021/08/31 09:09:03;;;;;;;9.68;5.95;;;;;;;21.22;61.15;100664.00;6045252;23;20394;-82
2021/08/31 09:11:47;;;;;;;8.40;6.40;;;;;;;21.19;60.95;100663.41;6044618;23;20027;-82
2021/08/31 09:14:30;;;;;;;9.73;6.03;;;;;;;21.19;61.12;100663.41;6044690;23;20102;-82
2021/08/31 09:16:58;;;;;;;;;;;;;;;21.21;61.97;100667.69;6039316;23;20394;-83
2021/08/31 09:22:51;;;;;;;6.57;4.75;;;;;;;21.30;61.11;100665.19;6070114;23;20073;-81
2021/08/31 09:25:18;;;;;;;6.65;4.82;;;;;;;21.38;61.72;100661.81;6069477;23;20023;-81
2021/08/31 09:27:46;;;;;;;6.30;4.82;;;;;;;21.47;61.99;100664.53;6069575;23;20027;-82
2021/08/31 09:30:25;;;;;;;7.00;5.38;;;;;;;21.58;61.45;100668.06;6044834;23;20454;-83
2021/08/31 09:33:08;;;;;;;8.90;5.65;;;;;;;21.75;61.61;100661.22;6044475;23;20102;-82
2021/08/31 09:39:02;;;;;;;6.50;5.15;;;;;;;22.13;60.13;100672.13;6069444;23;20025;-82
2021/08/31 09:45:06;;;;;;;7.93;4.78;;;;;;;22.26;59.07;100667.31;6069484;23;20026;-82
2021/08/31 09:47:36;;;;;;;6.40;4.63;;;;;;;22.31;59.04;100671.41;6044199;23;20049;-82
2021/08/31 09:50:05;;;;;;;5.53;4.25;;;;;;;22.34;58.88;100663.94;6044730;23;20029;-82
2021/08/31 09:59:33;;;;;;;6.80;4.70;;;;;;;22.62;58.93;100660.53;6070186;23;20481;-81
2021/08/31 10:02:15;;;;;;;5.75;4.80;;;;;;;22.68;58.03;100665.31;6069195;23;20097;-83
2021/08/31 10:04:42;;;;;;;8.38;5.20;;;;;;;22.83;58.92;100664.88;6044299;23;20074;-83
2021/08/31 10:07:24;;;;;;;6.05;4.57;;;;;;;22.89;57.43;100664.28;6044219;23;20027;-83
2021/08/31 10:09:53;;;;;;;4.95;4.45;;;;;;;23.01;57.70;100663.09;6044300;23;20102;-83
2021/08/31 10:12:54;;;;;;;6.25;4.38;;;;;;;23.08;57.27;100666.03;6044005;23;20029;-83
2021/08/31 10:15:22;;;;;;;6.55;4.80;;;;;;;23.22;57.40;100664.72;6044095;23;20102;-83
2021/08/31 10:17:54;;;;;;;5.40;4.13;;;;;;;23.28;56.19;100674.84;6044450;23;20123;-83
2021/08/31 10:20:27;;;;;;;5.93;4.28;;;;;;;23.36;56.53;100676.00;6044564;23;20328;-83
2021/08/31 10:23:36;;;;;;;5.50;4.43;;;;;;;23.40;56.52;100680.06;5961812;24;20410;-83
2021/08/31 10:26:38;;;;;;;5.13;4.20;;;;;;;23.45;56.97;100675.09;5958828;24;20043;-83
2021/08/31 10:29:21;;;;;;;6.13;4.43;;;;;;;23.53;56.90;100677.88;5937728;24;20024;-83
2021/08/31 10:31:50;;;;;;;4.93;4.22;;;;;;;23.65;56.61;100669.59;5958574;24;20024;-83
2021/08/31 10:35:06;;;;;;;6.57;4.22;;;;;;;23.70;55.77;100678.06;5958388;24;20028;-83
2021/08/31 10:37:47;;;;;;;6.80;4.03;;;;;;;23.80;54.84;100675.28;5958313;24;20020;-82
2021/08/31 10:40:40;;;;;;;7.68;4.13;;;;;;;23.84;55.30;100675.84;5960403;23;20024;-83
2021/08/31 10:43:09;;;;;;;5.18;4.10;;;;;;;23.92;55.71;100682.16;6015270;23;20020;-83
2021/08/31 10:46:20;;;;;;;5.03;4.10;;;;;;;23.95;55.13;100676.47;6040120;23;20030;-83
2021/08/31 10:49:01;;;;;;;5.03;4.07;;;;;;;24.10;55.50;100677.78;6039226;23;20347;-83
2021/08/31 10:51:30;;;;;;;7.50;4.05;;;;;;;24.27;56.06;100684.19;6015090;23;20106;-82
2021/08/31 10:53:57;;;;;;;4.65;4.05;;;;;;;24.44;56.50;100675.25;6015173;23;20031;-83
2021/08/31 10:56:24;;;;;;;5.93;4.20;;;;;;;24.62;55.49;100668.16;6015292;23;20023;-83
2021/08/31 10:59:00;;;;;;;5.05;3.95;;;;;;;24.80;55.04;100665.38;6015247;23;20107;-82
2021/08/31 11:01:45;;;;;;;5.75;4.18;;;;;;;25.02;53.67;100671.25;6015192;23;20026;-83
2021/08/31 11:04:30;;;;;;;3.85;3.05;;;;;;;25.18;53.24;100671.34;6015655;23;20316;-83
2021/08/31 11:07:19;;;;;;;8.25;3.78;;;;;;;25.37;52.99;100670.25;6015579;23;20034;-83
2021/08/31 11:09:47;;;;;;;4.20;3.50;;;;;;;25.74;54.84;100661.94;6014976;23;20090;-83
2021/08/31 11:12:17;;;;;;;4.40;3.70;;;;;;;26.20;54.73;100663.34;6015160;23;20033;-83
2021/08/31 11:14:48;;;;;;;4.18;3.78;;;;;;;26.80;54.38;100666.69;6038982;23;20451;-83
2021/08/31 11:17:31;;;;;;;6.07;3.30;;;;;;;27.41;52.17;100668.88;6015274;23;20358;-83
2021/08/31 11:20:14;;;;;;;4.25;3.17;;;;;;;27.93;50.78;100674.69;6038812;23;20331;-83
2021/08/31 11:22:41;;;;;;;7.18;3.40;;;;;;;28.33;49.69;100676.44;6015074;23;20022;-83
2021/08/31 11:25:11;;;;;;;5.32;3.10;;;;;;;28.53;47.15;100678.59;6014884;23;20031;-83
2021/08/31 11:28:18;;;;;;;3.60;3.30;;;;;;;28.63;47.99;100681.06;6019651;23;20026;-83
2021/08/31 11:30:59;;;;;;;3.00;2.67;;;;;;;28.90;48.22;100663.38;6043488;23;20023;-83
2021/08/31 11:33:39;;;;;;;4.20;2.97;;;;;;;29.30;47.14;100662.19;6043721;23;20023;-83
2021/08/31 11:36:07;;;;;;;3.65;3.20;;;;;;;29.79;47.26;100666.13;6043837;23;20341;-83
2021/08/31 11:38:48;;;;;;;4.20;3.20;;;;;;;30.30;46.40;100656.16;6043559;23;20027;-83
2021/08/31 11:41:15;;;;;;;3.47;2.80;;;;;;;30.79;45.45;100662.59;6043448;23;20023;-83
2021/08/31 11:43:42;;;;;;;3.25;2.92;;;;;;;31.20;43.66;100660.91;6043575;23;20105;-83
2021/08/31 11:46:10;;;;;;;3.10;2.80;;;;;;;31.61;43.55;100662.97;6043501;23;20022;-84
2021/08/31 11:48:37;;;;;;;3.08;2.67;;;;;;;32.04;43.53;100656.34;6043822;23;20489;-84
2021/08/31 11:51:05;;;;;;;4.03;3.00;;;;;;;32.43;41.93;100664.72;6043507;23;20023;-83
2021/08/31 11:53:31;;;;;;;3.28;2.88;;;;;;;32.70;42.05;100662.81;6043689;23;20439;-84
2021/08/31 11:56:01;;;;;;;3.60;2.70;;;;;;;32.89;38.86;100661.09;6043676;23;20027;-83
2021/08/31 11:58:31;;;;;;;2.88;2.53;;;;;;;32.94;37.96;100667.81;6043594;23;20033;-83
2021/08/31 12:00:57;;;;;;;3.13;2.80;;;;;;;32.94;39.39;100665.91;6043690;23;20029;-83